sensor_id;sensor_type;location;lat;lon;timestamp;temperature;humidity
6333;DHT22;3199;49.102;8.856;2023-02-18T00:00:06;12.20;99.90
6333;DHT22;3199;49.102;8.856;2023-02-18T00:02:32;12.20;99.90
6333;DHT22;3199;49.102;8.856;2023-02-18T00:04:58;12.20;99.90
6333;DHT22;3199;49.102;8.856;2023-02-18T00:07:23;12.20;99.90
6333;DHT22;3199;49.102;8.856;2023-02-18T00:09:49;12.20;99.90
6333;DHT22;3199;49.102;8.856;2023-02-18T00:12:14;12.20;99.90
6333;DHT22;3199;49.102;8.856;2023-02-18T00:14:40;12.20;99.90
6333;DHT22;3199;49.102;8.856;2023-02-18T00:17:05;12.20;99.90
6333;DHT22;3199;49.102;8.856;2023-02-18T00:19:31;12.20;99.90
6333;DHT22;3199;49.102;8.856;2023-02-18T00:21:57;12.20;99.90
6333;DHT22;3199;49.102;8.856;2023-02-18T00:24:22;12.20;99.90
6333;DHT22;3199;49.102;8.856;2023-02-18T00:26:50;12.30;99.90
6333;DHT22;3199;49.102;8.856;2023-02-18T00:29:16;12.30;99.90
6333;DHT22;3199;49.102;8.856;2023-02-18T00:31:41;12.30;99.90
6333;DHT22;3199;49.102;8.856;2023-02-18T00:34:07;12.20;99.90
6333;DHT22;3199;49.102;8.856;2023-02-18T00:36:34;12.20;99.90
6333;DHT22;3199;49.102;8.856;2023-02-18T00:39:02;12.20;99.90
6333;DHT22;3199;49.102;8.856;2023-02-18T00:41:29;12.30;99.90
6333;DHT22;3199;49.102;8.856;2023-02-18T00:43:55;12.20;99.90
6333;DHT22;3199;49.102;8.856;2023-02-18T00:46:21;12.30;99.90
6333;DHT22;3199;49.102;8.856;2023-02-18T00:48:47;12.20;99.90
6333;DHT22;3199;49.102;8.856;2023-02-18T00:51:12;12.20;99.90
6333;DHT22;3199;49.102;8.856;2023-02-18T00:53:38;12.20;99.90
6333;DHT22;3199;49.102;8.856;2023-02-18T00:56:04;12.20;99.90
6333;DHT22;3199;49.102;8.856;2023-02-18T00:58:30;12.20;99.90
6333;DHT22;3199;49.102;8.856;2023-02-18T01:00:56;12.20;99.90
6333;DHT22;3199;49.102;8.856;2023-02-18T01:03:22;12.30;99.90
6333;DHT22;3199;49.102;8.856;2023-02-18T01:05:48;12.30;99.90
6333;DHT22;3199;49.102;8.856;2023-02-18T01:08:18;12.20;99.90
6333;DHT22;3199;49.102;8.856;2023-02-18T01:10:45;12.20;99.90
6333;DHT22;3199;49.102;8.856;2023-02-18T01:13:12;12.20;99.90
6333;DHT22;3199;49.102;8.856;2023-02-18T01:15:38;12.20;99.90
6333;DHT22;3199;49.102;8.856;2023-02-18T01:18:05;12.20;99.90
6333;DHT22;3199;49.102;8.856;2023-02-18T01:20:32;12.20;99.90
6333;DHT22;3199;49.102;8.856;2023-02-18T01:22:58;12.20;99.90
6333;DHT22;3199;49.102;8.856;2023-02-18T01:25:23;12.20;99.90
6333;DHT22;3199;49.102;8.856;2023-02-18T01:27:49;12.20;99.90
6333;DHT22;3199;49.102;8.856;2023-02-18T01:30:16;12.10;99.90
6333;DHT22;3199;49.102;8.856;2023-02-18T01:32:42;12.40;99.90
6333;DHT22;3199;49.102;8.856;2023-02-18T01:35:11;12.40;99.90
6333;DHT22;3199;49.102;8.856;2023-02-18T01:37:37;12.30;99.90
6333;DHT22;3199;49.102;8.856;2023-02-18T01:40:03;12.20;99.90
6333;DHT22;3199;49.102;8.856;2023-02-18T01:42:29;12.20;99.90
6333;DHT22;3199;49.102;8.856;2023-02-18T01:48:04;12.20;99.90
6333;DHT22;3199;49.102;8.856;2023-02-18T01:50:32;12.20;99.90
6333;DHT22;3199;49.102;8.856;2023-02-18T01:52:59;12.10;99.90
6333;DHT22;3199;49.102;8.856;2023-02-18T01:55:25;12.20;99.90
6333;DHT22;3199;49.102;8.856;2023-02-18T01:57:51;12.20;99.90
6333;DHT22;3199;49.102;8.856;2023-02-18T02:00:18;12.20;99.90
6333;DHT22;3199;49.102;8.856;2023-02-18T02:02:47;12.10;99.90
6333;DHT22;3199;49.102;8.856;2023-02-18T02:05:15;12.20;99.90
6333;DHT22;3199;49.102;8.856;2023-02-18T02:07:42;12.20;99.90
6333;DHT22;3199;49.102;8.856;2023-02-18T02:10:10;12.20;99.90
6333;DHT22;3199;49.102;8.856;2023-02-18T02:13:08;12.10;99.90
6333;DHT22;3199;49.102;8.856;2023-02-18T02:15:49;12.10;99.90
6333;DHT22;3199;49.102;8.856;2023-02-18T02:18:37;12.10;99.90
6333;DHT22;3199;49.102;8.856;2023-02-18T02:21:34;12.10;99.90
6333;DHT22;3199;49.102;8.856;2023-02-18T02:27:10;12.10;99.90
6333;DHT22;3199;49.102;8.856;2023-02-18T02:30:00;12.10;99.90
6333;DHT22;3199;49.102;8.856;2023-02-18T02:35:46;12.10;99.90
6333;DHT22;3199;49.102;8.856;2023-02-18T02:38:24;12.10;99.90
6333;DHT22;3199;49.102;8.856;2023-02-18T02:41:07;12.10;99.90
6333;DHT22;3199;49.102;8.856;2023-02-18T02:43:57;12.10;99.90
6333;DHT22;3199;49.102;8.856;2023-02-18T02:46:30;12.10;99.90
6333;DHT22;3199;49.102;8.856;2023-02-18T02:51:58;12.10;99.90
6333;DHT22;3199;49.102;8.856;2023-02-18T02:54:26;12.10;99.90
6333;DHT22;3199;49.102;8.856;2023-02-18T02:59:46;12.00;99.90
6333;DHT22;3199;49.102;8.856;2023-02-18T03:03:01;12.00;99.90
6333;DHT22;3199;49.102;8.856;2023-02-18T03:08:08;11.90;99.90
6333;DHT22;3199;49.102;8.856;2023-02-18T03:20:47;11.70;99.90
6333;DHT22;3199;49.102;8.856;2023-02-18T03:23:18;11.70;99.90
6333;DHT22;3199;49.102;8.856;2023-02-18T03:25:45;11.70;99.90
6333;DHT22;3199;49.102;8.856;2023-02-18T03:28:14;11.70;99.90
6333;DHT22;3199;49.102;8.856;2023-02-18T03:30:42;11.60;99.90
6333;DHT22;3199;49.102;8.856;2023-02-18T03:33:14;11.60;99.90
6333;DHT22;3199;49.102;8.856;2023-02-18T03:35:42;11.60;99.90
6333;DHT22;3199;49.102;8.856;2023-02-18T03:40:38;11.60;99.90
6333;DHT22;3199;49.102;8.856;2023-02-18T03:43:04;11.60;99.90
6333;DHT22;3199;49.102;8.856;2023-02-18T03:45:29;11.60;99.90
6333;DHT22;3199;49.102;8.856;2023-02-18T03:47:55;11.60;99.90
6333;DHT22;3199;49.102;8.856;2023-02-18T03:50:20;11.60;99.90
6333;DHT22;3199;49.102;8.856;2023-02-18T03:52:46;11.60;99.90
6333;DHT22;3199;49.102;8.856;2023-02-18T03:55:12;11.60;99.90
6333;DHT22;3199;49.102;8.856;2023-02-18T03:57:37;11.60;99.90
6333;DHT22;3199;49.102;8.856;2023-02-18T04:00:05;11.60;99.90
6333;DHT22;3199;49.102;8.856;2023-02-18T04:02:31;11.60;99.90
6333;DHT22;3199;49.102;8.856;2023-02-18T04:04:57;11.60;99.90
6333;DHT22;3199;49.102;8.856;2023-02-18T04:07:22;11.60;99.90
6333;DHT22;3199;49.102;8.856;2023-02-18T04:09:48;11.60;99.90
6333;DHT22;3199;49.102;8.856;2023-02-18T04:12:13;11.60;99.90
6333;DHT22;3199;49.102;8.856;2023-02-18T04:14:39;11.60;99.90
6333;DHT22;3199;49.102;8.856;2023-02-18T04:17:06;11.70;99.90
6333;DHT22;3199;49.102;8.856;2023-02-18T04:19:31;11.70;99.90
6333;DHT22;3199;49.102;8.856;2023-02-18T04:21:57;11.70;99.90
6333;DHT22;3199;49.102;8.856;2023-02-18T04:24:22;11.70;99.90
6333;DHT22;3199;49.102;8.856;2023-02-18T04:26:48;11.70;99.90
6333;DHT22;3199;49.102;8.856;2023-02-18T04:29:13;11.70;99.90
6333;DHT22;3199;49.102;8.856;2023-02-18T04:31:39;11.70;99.90
6333;DHT22;3199;49.102;8.856;2023-02-18T04:34:04;11.70;99.90
6333;DHT22;3199;49.102;8.856;2023-02-18T04:36:30;11.70;99.90
6333;DHT22;3199;49.102;8.856;2023-02-18T04:38:55;11.70;99.90
6333;DHT22;3199;49.102;8.856;2023-02-18T04:41:21;11.70;99.90
6333;DHT22;3199;49.102;8.856;2023-02-18T04:43:47;11.70;99.90
6333;DHT22;3199;49.102;8.856;2023-02-18T04:46:12;11.70;99.90
6333;DHT22;3199;49.102;8.856;2023-02-18T04:48:38;11.70;99.90
6333;DHT22;3199;49.102;8.856;2023-02-18T04:51:03;11.60;99.90
6333;DHT22;3199;49.102;8.856;2023-02-18T04:53:29;11.60;99.90
6333;DHT22;3199;49.102;8.856;2023-02-18T04:55:54;11.60;99.90
6333;DHT22;3199;49.102;8.856;2023-02-18T04:58:20;11.60;99.90
6333;DHT22;3199;49.102;8.856;2023-02-18T05:00:46;11.60;99.90
6333;DHT22;3199;49.102;8.856;2023-02-18T05:03:12;11.60;99.90
6333;DHT22;3199;49.102;8.856;2023-02-18T05:05:38;11.50;99.90
6333;DHT22;3199;49.102;8.856;2023-02-18T05:08:03;11.50;99.90
6333;DHT22;3199;49.102;8.856;2023-02-18T05:10:29;11.50;99.90
6333;DHT22;3199;49.102;8.856;2023-02-18T05:12:54;11.50;99.90
6333;DHT22;3199;49.102;8.856;2023-02-18T05:15:20;11.50;99.90
6333;DHT22;3199;49.102;8.856;2023-02-18T05:17:45;11.50;99.90
6333;DHT22;3199;49.102;8.856;2023-02-18T05:20:11;11.50;99.90
6333;DHT22;3199;49.102;8.856;2023-02-18T05:22:37;11.50;99.90
6333;DHT22;3199;49.102;8.856;2023-02-18T05:25:04;11.50;99.90
6333;DHT22;3199;49.102;8.856;2023-02-18T05:27:30;11.50;99.90
6333;DHT22;3199;49.102;8.856;2023-02-18T05:29:55;11.40;99.90
6333;DHT22;3199;49.102;8.856;2023-02-18T05:32:21;11.50;99.90
6333;DHT22;3199;49.102;8.856;2023-02-18T05:34:47;11.50;99.90
6333;DHT22;3199;49.102;8.856;2023-02-18T05:37:12;11.50;99.90
6333;DHT22;3199;49.102;8.856;2023-02-18T05:39:39;11.50;99.90
6333;DHT22;3199;49.102;8.856;2023-02-18T05:42:05;11.50;99.90
6333;DHT22;3199;49.102;8.856;2023-02-18T05:44:30;11.50;99.90
6333;DHT22;3199;49.102;8.856;2023-02-18T05:46:58;11.50;99.90
6333;DHT22;3199;49.102;8.856;2023-02-18T05:49:24;11.50;99.90
6333;DHT22;3199;49.102;8.856;2023-02-18T05:51:50;11.50;99.90
6333;DHT22;3199;49.102;8.856;2023-02-18T05:54:15;11.50;99.90
6333;DHT22;3199;49.102;8.856;2023-02-18T05:56:41;11.50;99.90
6333;DHT22;3199;49.102;8.856;2023-02-18T05:59:07;11.60;99.90
6333;DHT22;3199;49.102;8.856;2023-02-18T06:01:32;11.50;99.90
6333;DHT22;3199;49.102;8.856;2023-02-18T06:03:58;11.60;99.90
6333;DHT22;3199;49.102;8.856;2023-02-18T06:06:23;11.60;99.90
6333;DHT22;3199;49.102;8.856;2023-02-18T06:08:49;11.60;99.90
6333;DHT22;3199;49.102;8.856;2023-02-18T06:11:14;11.60;99.90
6333;DHT22;3199;49.102;8.856;2023-02-18T06:13:40;11.60;99.90
6333;DHT22;3199;49.102;8.856;2023-02-18T06:16:06;11.60;99.90
6333;DHT22;3199;49.102;8.856;2023-02-18T06:18:31;11.60;99.90
6333;DHT22;3199;49.102;8.856;2023-02-18T06:20:57;11.60;99.90
6333;DHT22;3199;49.102;8.856;2023-02-18T06:23:22;11.60;99.90
6333;DHT22;3199;49.102;8.856;2023-02-18T06:25:48;11.60;99.90
6333;DHT22;3199;49.102;8.856;2023-02-18T06:28:15;12.10;99.90
6333;DHT22;3199;49.102;8.856;2023-02-18T06:30:41;12.30;99.90
6333;DHT22;3199;49.102;8.856;2023-02-18T06:33:06;12.20;99.90
6333;DHT22;3199;49.102;8.856;2023-02-18T06:35:32;12.00;99.90
6333;DHT22;3199;49.102;8.856;2023-02-18T06:37:57;11.90;99.90
6333;DHT22;3199;49.102;8.856;2023-02-18T06:40:23;11.80;99.90
6333;DHT22;3199;49.102;8.856;2023-02-18T06:42:49;11.70;99.90
6333;DHT22;3199;49.102;8.856;2023-02-18T06:45:14;11.60;99.90
6333;DHT22;3199;49.102;8.856;2023-02-18T06:47:40;11.60;99.90
6333;DHT22;3199;49.102;8.856;2023-02-18T06:50:06;11.60;99.90
6333;DHT22;3199;49.102;8.856;2023-02-18T06:52:31;11.60;99.90
6333;DHT22;3199;49.102;8.856;2023-02-18T06:55:03;11.60;99.90
6333;DHT22;3199;49.102;8.856;2023-02-18T06:57:29;11.70;99.90
6333;DHT22;3199;49.102;8.856;2023-02-18T06:59:54;11.70;99.90
6333;DHT22;3199;49.102;8.856;2023-02-18T07:02:20;11.70;99.90
6333;DHT22;3199;49.102;8.856;2023-02-18T07:04:45;11.70;99.90
6333;DHT22;3199;49.102;8.856;2023-02-18T07:07:11;11.70;99.90
6333;DHT22;3199;49.102;8.856;2023-02-18T07:09:36;11.70;99.90
6333;DHT22;3199;49.102;8.856;2023-02-18T07:12:02;11.70;99.90
6333;DHT22;3199;49.102;8.856;2023-02-18T07:14:28;11.70;99.90
6333;DHT22;3199;49.102;8.856;2023-02-18T07:16:53;11.70;99.90
6333;DHT22;3199;49.102;8.856;2023-02-18T07:19:19;11.70;99.90
6333;DHT22;3199;49.102;8.856;2023-02-18T07:21:44;11.80;99.90
6333;DHT22;3199;49.102;8.856;2023-02-18T07:24:10;11.80;99.90
6333;DHT22;3199;49.102;8.856;2023-02-18T07:26:35;11.80;99.90
6333;DHT22;3199;49.102;8.856;2023-02-18T07:29:01;11.80;99.90
6333;DHT22;3199;49.102;8.856;2023-02-18T07:31:26;11.90;99.90
6333;DHT22;3199;49.102;8.856;2023-02-18T07:33:52;11.90;99.90
6333;DHT22;3199;49.102;8.856;2023-02-18T07:36:18;12.00;99.90
6333;DHT22;3199;49.102;8.856;2023-02-18T07:38:43;12.00;99.90
6333;DHT22;3199;49.102;8.856;2023-02-18T07:41:18;12.00;99.90
6333;DHT22;3199;49.102;8.856;2023-02-18T07:43:44;12.00;99.90
6333;DHT22;3199;49.102;8.856;2023-02-18T07:46:10;12.00;99.90
6333;DHT22;3199;49.102;8.856;2023-02-18T07:48:35;12.00;99.90
6333;DHT22;3199;49.102;8.856;2023-02-18T07:51:05;12.10;99.90
6333;DHT22;3199;49.102;8.856;2023-02-18T07:53:31;12.10;99.90
6333;DHT22;3199;49.102;8.856;2023-02-18T07:56:00;12.10;99.90
6333;DHT22;3199;49.102;8.856;2023-02-18T07:58:29;12.20;99.90
6333;DHT22;3199;49.102;8.856;2023-02-18T08:00:56;12.20;99.90
6333;DHT22;3199;49.102;8.856;2023-02-18T08:03:26;12.20;99.90
6333;DHT22;3199;49.102;8.856;2023-02-18T08:05:53;12.30;99.90
6333;DHT22;3199;49.102;8.856;2023-02-18T08:08:24;12.30;99.90
6333;DHT22;3199;49.102;8.856;2023-02-18T08:10:50;12.40;99.90
6333;DHT22;3199;49.102;8.856;2023-02-18T08:13:16;12.40;99.90
6333;DHT22;3199;49.102;8.856;2023-02-18T08:15:42;12.50;99.90
6333;DHT22;3199;49.102;8.856;2023-02-18T08:18:14;12.60;99.90
6333;DHT22;3199;49.102;8.856;2023-02-18T08:20:40;12.70;99.90
6333;DHT22;3199;49.102;8.856;2023-02-18T08:23:06;12.60;99.90
6333;DHT22;3199;49.102;8.856;2023-02-18T08:25:31;12.70;99.90
6333;DHT22;3199;49.102;8.856;2023-02-18T08:27:58;12.70;99.90
6333;DHT22;3199;49.102;8.856;2023-02-18T08:30:24;12.80;99.90
6333;DHT22;3199;49.102;8.856;2023-02-18T08:32:49;12.80;99.90
6333;DHT22;3199;49.102;8.856;2023-02-18T08:35:15;12.80;99.90
6333;DHT22;3199;49.102;8.856;2023-02-18T08:37:40;12.80;99.90
6333;DHT22;3199;49.102;8.856;2023-02-18T08:40:07;12.90;99.90
6333;DHT22;3199;49.102;8.856;2023-02-18T08:42:34;12.90;99.90
6333;DHT22;3199;49.102;8.856;2023-02-18T08:44:59;12.90;99.90
6333;DHT22;3199;49.102;8.856;2023-02-18T08:47:25;12.90;99.90
6333;DHT22;3199;49.102;8.856;2023-02-18T08:49:52;12.90;99.90
6333;DHT22;3199;49.102;8.856;2023-02-18T08:52:18;13.00;99.90
6333;DHT22;3199;49.102;8.856;2023-02-18T08:54:44;13.00;99.90
6333;DHT22;3199;49.102;8.856;2023-02-18T08:57:09;13.00;99.90
6333;DHT22;3199;49.102;8.856;2023-02-18T08:59:35;13.00;99.90
6333;DHT22;3199;49.102;8.856;2023-02-18T09:02:00;12.90;99.90
6333;DHT22;3199;49.102;8.856;2023-02-18T09:04:26;12.90;99.90
6333;DHT22;3199;49.102;8.856;2023-02-18T09:06:51;12.90;99.90
6333;DHT22;3199;49.102;8.856;2023-02-18T09:09:17;12.90;99.90
6333;DHT22;3199;49.102;8.856;2023-02-18T09:11:43;12.90;99.90
6333;DHT22;3199;49.102;8.856;2023-02-18T09:14:09;12.90;99.90
6333;DHT22;3199;49.102;8.856;2023-02-18T09:16:35;12.90;99.90
6333;DHT22;3199;49.102;8.856;2023-02-18T09:19:02;12.90;99.90
6333;DHT22;3199;49.102;8.856;2023-02-18T09:21:28;12.90;99.90
6333;DHT22;3199;49.102;8.856;2023-02-18T09:23:54;12.90;99.90
6333;DHT22;3199;49.102;8.856;2023-02-18T09:26:20;13.00;99.90
6333;DHT22;3199;49.102;8.856;2023-02-18T09:28:48;13.00;99.90
6333;DHT22;3199;49.102;8.856;2023-02-18T09:31:17;13.00;99.90
6333;DHT22;3199;49.102;8.856;2023-02-18T09:34:03;13.00;99.90
6333;DHT22;3199;49.102;8.856;2023-02-18T09:36:29;13.00;99.90
6333;DHT22;3199;49.102;8.856;2023-02-18T09:38:55;13.00;99.90
6333;DHT22;3199;49.102;8.856;2023-02-18T09:44:02;13.10;99.90
6333;DHT22;3199;49.102;8.856;2023-02-18T09:46:33;13.10;99.90
6333;DHT22;3199;49.102;8.856;2023-02-18T09:49:02;13.10;99.90
6333;DHT22;3199;49.102;8.856;2023-02-18T09:51:28;13.10;99.90
6333;DHT22;3199;49.102;8.856;2023-02-18T09:53:54;13.10;99.90
6333;DHT22;3199;49.102;8.856;2023-02-18T09:56:25;13.20;99.90
6333;DHT22;3199;49.102;8.856;2023-02-18T09:58:53;13.20;99.90
6333;DHT22;3199;49.102;8.856;2023-02-18T10:01:34;13.20;99.90
6333;DHT22;3199;49.102;8.856;2023-02-18T10:04:21;13.30;99.90
6333;DHT22;3199;49.102;8.856;2023-02-18T10:06:51;13.30;99.90
6333;DHT22;3199;49.102;8.856;2023-02-18T10:09:27;13.30;99.90
6333;DHT22;3199;49.102;8.856;2023-02-18T10:12:17;13.30;99.90
6333;DHT22;3199;49.102;8.856;2023-02-18T10:15:00;13.30;99.90
6333;DHT22;3199;49.102;8.856;2023-02-18T10:17:29;13.20;99.90
6333;DHT22;3199;49.102;8.856;2023-02-18T10:19:57;13.10;99.90
6333;DHT22;3199;49.102;8.856;2023-02-18T10:22:25;13.10;99.90
6333;DHT22;3199;49.102;8.856;2023-02-18T10:24:53;13.10;99.90
6333;DHT22;3199;49.102;8.856;2023-02-18T10:29:50;13.00;99.90
6333;DHT22;3199;49.102;8.856;2023-02-18T10:32:30;13.00;99.90
6333;DHT22;3199;49.102;8.856;2023-02-18T10:38:24;13.00;99.90
6333;DHT22;3199;49.102;8.856;2023-02-18T10:41:05;13.00;99.90
6333;DHT22;3199;49.102;8.856;2023-02-18T10:43:59;13.00;99.90
6333;DHT22;3199;49.102;8.856;2023-02-18T10:52:02;13.00;99.90
6333;DHT22;3199;49.102;8.856;2023-02-18T10:54:58;13.00;99.90
6333;DHT22;3199;49.102;8.856;2023-02-18T10:57:24;12.90;99.90
6333;DHT22;3199;49.102;8.856;2023-02-18T11:02:35;12.90;99.90
6333;DHT22;3199;49.102;8.856;2023-02-18T11:05:11;12.90;99.90
6333;DHT22;3199;49.102;8.856;2023-02-18T11:07:41;13.00;99.90
6333;DHT22;3199;49.102;8.856;2023-02-18T11:17:41;13.20;99.90
6333;DHT22;3199;49.102;8.856;2023-02-18T11:20:30;13.30;99.90
6333;DHT22;3199;49.102;8.856;2023-02-18T11:22:59;13.30;99.90
6333;DHT22;3199;49.102;8.856;2023-02-18T11:25:39;13.20;99.90
6333;DHT22;3199;49.102;8.856;2023-02-18T11:30:39;13.20;99.90
6333;DHT22;3199;49.102;8.856;2023-02-18T11:35:53;13.10;99.90
6333;DHT22;3199;49.102;8.856;2023-02-18T11:38:33;13.10;99.90
6333;DHT22;3199;49.102;8.856;2023-02-18T11:41:06;13.00;99.90
6333;DHT22;3199;49.102;8.856;2023-02-18T11:43:33;13.10;99.90
6333;DHT22;3199;49.102;8.856;2023-02-18T11:48:40;13.10;99.90
6333;DHT22;3199;49.102;8.856;2023-02-18T11:51:14;13.10;99.90
6333;DHT22;3199;49.102;8.856;2023-02-18T11:53:59;13.10;99.90
6333;DHT22;3199;49.102;8.856;2023-02-18T11:56:31;13.20;99.90
6333;DHT22;3199;49.102;8.856;2023-02-18T11:58:57;13.20;99.90
6333;DHT22;3199;49.102;8.856;2023-02-18T12:01:44;13.30;99.90
6333;DHT22;3199;49.102;8.856;2023-02-18T12:04:19;13.30;99.90
6333;DHT22;3199;49.102;8.856;2023-02-18T12:09:25;13.30;99.90
6333;DHT22;3199;49.102;8.856;2023-02-18T12:12:31;13.30;99.90
6333;DHT22;3199;49.102;8.856;2023-02-18T12:15:00;13.30;99.90
6333;DHT22;3199;49.102;8.856;2023-02-18T12:20:03;13.50;99.90
6333;DHT22;3199;49.102;8.856;2023-02-18T12:22:41;13.60;99.90
6333;DHT22;3199;49.102;8.856;2023-02-18T12:25:30;13.60;99.90
6333;DHT22;3199;49.102;8.856;2023-02-18T12:45:32;14.00;99.90
6333;DHT22;3199;49.102;8.856;2023-02-18T12:51:24;14.10;99.90
6333;DHT22;3199;49.102;8.856;2023-02-18T13:00:18;14.40;99.90
6333;DHT22;3199;49.102;8.856;2023-02-18T13:03:17;14.50;99.90
6333;DHT22;3199;49.102;8.856;2023-02-18T13:13:33;14.70;99.90
6333;DHT22;3199;49.102;8.856;2023-02-18T13:16:09;14.80;99.90
6333;DHT22;3199;49.102;8.856;2023-02-18T13:18:38;14.80;99.90
6333;DHT22;3199;49.102;8.856;2023-02-18T13:21:15;14.80;99.90
6333;DHT22;3199;49.102;8.856;2023-02-18T13:24:00;14.80;99.90
6333;DHT22;3199;49.102;8.856;2023-02-18T13:26:29;14.60;99.90
6333;DHT22;3199;49.102;8.856;2023-02-18T13:36:52;14.90;99.90
6333;DHT22;3199;49.102;8.856;2023-02-18T13:39:20;14.80;99.90
6333;DHT22;3199;49.102;8.856;2023-02-18T13:41:48;14.80;99.90
6333;DHT22;3199;49.102;8.856;2023-02-18T13:49:19;14.80;99.90
6333;DHT22;3199;49.102;8.856;2023-02-18T13:51:48;14.70;99.90
6333;DHT22;3199;49.102;8.856;2023-02-18T13:54:41;14.60;99.90
6333;DHT22;3199;49.102;8.856;2023-02-18T13:57:18;14.60;99.90
6333;DHT22;3199;49.102;8.856;2023-02-18T13:59:56;14.60;99.90
6333;DHT22;3199;49.102;8.856;2023-02-18T14:10:02;14.60;99.90
6333;DHT22;3199;49.102;8.856;2023-02-18T14:20:29;14.10;99.90
6333;DHT22;3199;49.102;8.856;2023-02-18T14:22:56;14.10;99.90
6333;DHT22;3199;49.102;8.856;2023-02-18T14:25:34;14.10;99.90
6333;DHT22;3199;49.102;8.856;2023-02-18T14:28:36;14.10;99.90
6333;DHT22;3199;49.102;8.856;2023-02-18T14:30:50;14.10;99.90
6333;DHT22;3199;49.102;8.856;2023-02-18T14:33:17;14.00;99.90
6333;DHT22;3199;49.102;8.856;2023-02-18T14:39:32;14.00;99.90
6333;DHT22;3199;49.102;8.856;2023-02-18T14:47:47;14.10;99.90
6333;DHT22;3199;49.102;8.856;2023-02-18T14:50:19;14.10;99.80
6333;DHT22;3199;49.102;8.856;2023-02-18T14:55:36;14.10;99.40
6333;DHT22;3199;49.102;8.856;2023-02-18T14:58:07;14.10;99.10
6333;DHT22;3199;49.102;8.856;2023-02-18T15:00:41;14.00;99.00
6333;DHT22;3199;49.102;8.856;2023-02-18T15:03:16;14.00;99.10
6333;DHT22;3199;49.102;8.856;2023-02-18T15:05:42;14.00;99.20
6333;DHT22;3199;49.102;8.856;2023-02-18T15:08:18;14.00;99.20
6333;DHT22;3199;49.102;8.856;2023-02-18T15:11:00;14.00;99.40
6333;DHT22;3199;49.102;8.856;2023-02-18T15:13:32;13.90;99.20
6333;DHT22;3199;49.102;8.856;2023-02-18T15:16:03;13.80;99.10
6333;DHT22;3199;49.102;8.856;2023-02-18T15:18:33;13.70;99.20
6333;DHT22;3199;49.102;8.856;2023-02-18T15:21:01;13.70;99.30
6333;DHT22;3199;49.102;8.856;2023-02-18T15:23:28;13.70;99.50
6333;DHT22;3199;49.102;8.856;2023-02-18T15:25:54;13.60;99.50
6333;DHT22;3199;49.102;8.856;2023-02-18T15:28:22;13.60;99.60
6333;DHT22;3199;49.102;8.856;2023-02-18T15:30:48;13.50;99.70
6333;DHT22;3199;49.102;8.856;2023-02-18T15:33:15;13.50;99.90
6333;DHT22;3199;49.102;8.856;2023-02-18T15:35:42;13.40;99.90
6333;DHT22;3199;49.102;8.856;2023-02-18T15:38:34;13.30;99.90
6333;DHT22;3199;49.102;8.856;2023-02-18T15:41:03;13.20;99.90
6333;DHT22;3199;49.102;8.856;2023-02-18T15:43:29;13.20;99.90
6333;DHT22;3199;49.102;8.856;2023-02-18T15:45:57;13.10;99.90
6333;DHT22;3199;49.102;8.856;2023-02-18T15:50:51;13.10;99.90
6333;DHT22;3199;49.102;8.856;2023-02-18T15:53:19;13.10;99.90
6333;DHT22;3199;49.102;8.856;2023-02-18T15:55:47;13.00;99.90
6333;DHT22;3199;49.102;8.856;2023-02-18T15:58:29;13.00;99.90
6333;DHT22;3199;49.102;8.856;2023-02-18T16:01:00;12.90;99.90
6333;DHT22;3199;49.102;8.856;2023-02-18T16:03:31;12.80;99.90
6333;DHT22;3199;49.102;8.856;2023-02-18T16:06:28;12.80;99.90
6333;DHT22;3199;49.102;8.856;2023-02-18T16:09:02;12.70;99.90
6333;DHT22;3199;49.102;8.856;2023-02-18T16:11:31;12.70;99.90
6333;DHT22;3199;49.102;8.856;2023-02-18T16:13:59;12.70;99.90
6333;DHT22;3199;49.102;8.856;2023-02-18T16:16:30;12.60;99.90
6333;DHT22;3199;49.102;8.856;2023-02-18T16:18:58;12.60;99.90
6333;DHT22;3199;49.102;8.856;2023-02-18T16:21:35;12.60;99.90
6333;DHT22;3199;49.102;8.856;2023-02-18T16:24:03;12.50;99.90
6333;DHT22;3199;49.102;8.856;2023-02-18T16:26:46;12.50;99.90
6333;DHT22;3199;49.102;8.856;2023-02-18T16:29:22;12.50;99.90
6333;DHT22;3199;49.102;8.856;2023-02-18T16:31:48;12.40;99.90
6333;DHT22;3199;49.102;8.856;2023-02-18T16:34:13;12.40;99.90
6333;DHT22;3199;49.102;8.856;2023-02-18T16:36:39;12.40;99.90
6333;DHT22;3199;49.102;8.856;2023-02-18T16:39:25;12.30;99.90
6333;DHT22;3199;49.102;8.856;2023-02-18T16:41:51;12.30;99.90
6333;DHT22;3199;49.102;8.856;2023-02-18T16:44:16;12.30;99.90
6333;DHT22;3199;49.102;8.856;2023-02-18T16:46:42;12.20;99.90
6333;DHT22;3199;49.102;8.856;2023-02-18T16:49:11;12.20;99.90
6333;DHT22;3199;49.102;8.856;2023-02-18T16:51:37;12.20;99.90
6333;DHT22;3199;49.102;8.856;2023-02-18T16:54:03;12.20;99.90
6333;DHT22;3199;49.102;8.856;2023-02-18T16:56:31;12.20;99.90
6333;DHT22;3199;49.102;8.856;2023-02-18T16:58:57;12.10;99.90
6333;DHT22;3199;49.102;8.856;2023-02-18T17:01:33;12.10;99.90
6333;DHT22;3199;49.102;8.856;2023-02-18T17:04:02;12.10;99.90
6333;DHT22;3199;49.102;8.856;2023-02-18T17:06:28;12.00;99.90
6333;DHT22;3199;49.102;8.856;2023-02-18T17:08:54;12.00;99.90
6333;DHT22;3199;49.102;8.856;2023-02-18T17:11:31;12.00;99.90
6333;DHT22;3199;49.102;8.856;2023-02-18T17:13:58;11.90;99.90
6333;DHT22;3199;49.102;8.856;2023-02-18T17:16:24;11.90;99.90
6333;DHT22;3199;49.102;8.856;2023-02-18T17:18:50;11.90;99.90
6333;DHT22;3199;49.102;8.856;2023-02-18T17:21:19;11.90;99.90
6333;DHT22;3199;49.102;8.856;2023-02-18T17:23:45;11.90;99.90
6333;DHT22;3199;49.102;8.856;2023-02-18T17:26:23;11.80;99.90
6333;DHT22;3199;49.102;8.856;2023-02-18T17:28:53;11.80;99.90
6333;DHT22;3199;49.102;8.856;2023-02-18T17:31:24;11.80;99.90
6333;DHT22;3199;49.102;8.856;2023-02-18T17:33:54;11.80;99.90
6333;DHT22;3199;49.102;8.856;2023-02-18T17:36:20;11.70;99.90
6333;DHT22;3199;49.102;8.856;2023-02-18T17:38:46;11.70;99.90
6333;DHT22;3199;49.102;8.856;2023-02-18T17:41:12;11.70;99.90
6333;DHT22;3199;49.102;8.856;2023-02-18T17:43:38;11.60;99.90
6333;DHT22;3199;49.102;8.856;2023-02-18T17:46:04;11.60;99.90
6333;DHT22;3199;49.102;8.856;2023-02-18T17:48:30;11.60;99.90
6333;DHT22;3199;49.102;8.856;2023-02-18T17:50:56;11.60;99.90
6333;DHT22;3199;49.102;8.856;2023-02-18T17:53:23;11.60;99.90
6333;DHT22;3199;49.102;8.856;2023-02-18T17:55:49;11.50;99.90
6333;DHT22;3199;49.102;8.856;2023-02-18T17:58:15;11.50;99.90
6333;DHT22;3199;49.102;8.856;2023-02-18T18:00:55;11.50;99.90
6333;DHT22;3199;49.102;8.856;2023-02-18T18:03:21;11.50;99.90
6333;DHT22;3199;49.102;8.856;2023-02-18T18:05:49;11.50;99.90
6333;DHT22;3199;49.102;8.856;2023-02-18T18:08:16;11.40;99.90
6333;DHT22;3199;49.102;8.856;2023-02-18T18:10:50;11.40;99.90
6333;DHT22;3199;49.102;8.856;2023-02-18T18:13:28;11.40;99.90
6333;DHT22;3199;49.102;8.856;2023-02-18T18:15:56;11.40;99.90
6333;DHT22;3199;49.102;8.856;2023-02-18T18:18:24;11.40;99.90
6333;DHT22;3199;49.102;8.856;2023-02-18T18:21:00;11.40;99.90
6333;DHT22;3199;49.102;8.856;2023-02-18T18:23:25;11.30;99.90
6333;DHT22;3199;49.102;8.856;2023-02-18T18:25:55;11.30;99.90
6333;DHT22;3199;49.102;8.856;2023-02-18T18:28:21;11.30;99.90
6333;DHT22;3199;49.102;8.856;2023-02-18T18:30:49;11.30;99.90
6333;DHT22;3199;49.102;8.856;2023-02-18T18:33:19;11.30;99.90
6333;DHT22;3199;49.102;8.856;2023-02-18T18:35:47;11.30;99.90
6333;DHT22;3199;49.102;8.856;2023-02-18T18:38:14;11.30;99.90
6333;DHT22;3199;49.102;8.856;2023-02-18T18:40:41;11.20;99.90